Thacker, West Virginia
Current Conditions -  °F | °C
As of 1:15 AM on Thursday 29 Jan 2015 (Local Time) from KPBX Reporting Station
Clear Clear  
Wind Chill: -4°   Ceiling: Unl
Heat Index:   Visibility: 10mi
Dew Point: -7°   Wind: 9mph
Humidity: 60%   Direction: 130°SE
Pressure: 30.14"   Gusts: NA
Location:  37.59°N, 82.13°W
Report Text: KPBX 290615Z AUTO 13008KT 10SM CLR 00/M07 A3014 RMK AO2 T00001070
Loading
Personal Weather Stations






























Interactive Weather Map New forecast layout! Learn more

10-Day Weather Forecast

Advertisements
Track Severe Weather on mobile